createdAt,value
2022-08-23T00:02:22.912Z,17.80
2022-08-23T00:07:26.547Z,17.79
2022-08-23T00:12:33.294Z,17.88
2022-08-23T00:17:36.955Z,17.81
2022-08-23T00:22:39.979Z,17.88
2022-08-23T00:27:44.272Z,17.84
2022-08-23T00:32:46.027Z,17.94
2022-08-23T00:37:51.595Z,17.79
2022-08-23T00:43:14.086Z,17.74
2022-08-23T00:48:17.009Z,17.79
2022-08-23T00:53:23.722Z,17.88
2022-08-23T00:58:27.552Z,17.93
2022-08-23T01:03:38.555Z,17.85
2022-08-23T01:08:46.210Z,17.84
2022-08-23T01:13:58.541Z,17.83
2022-08-23T01:19:03.011Z,17.91
2022-08-23T01:24:07.598Z,17.95
2022-08-23T01:29:09.722Z,18.13
2022-08-23T01:34:13.612Z,18.17
2022-08-23T01:39:17.047Z,18.16
2022-08-23T01:44:19.160Z,18.14
2022-08-23T01:49:21.253Z,18.09
2022-08-23T01:54:24.466Z,18.10
2022-08-23T01:59:26.694Z,18.08
2022-08-23T02:04:29.093Z,18.22
2022-08-23T02:09:32.787Z,18.28
2022-08-23T02:14:35.948Z,18.24
2022-08-23T02:19:39.275Z,18.16
2022-08-23T02:24:44.475Z,18.14
2022-08-23T02:29:47.778Z,18.14
2022-08-23T02:35:05.341Z,18.21
2022-08-23T02:40:10.977Z,18.24
2022-08-23T02:45:12.802Z,18.23
2022-08-23T02:50:14.988Z,18.19
2022-08-23T02:55:20.097Z,18.05
2022-08-23T03:00:22.818Z,17.92
2022-08-23T03:05:24.937Z,17.91
2022-08-23T03:10:28.414Z,17.87
2022-08-23T03:15:30.825Z,17.91
2022-08-23T03:20:33.146Z,18.09
2022-08-23T03:25:37.927Z,18.13
2022-08-23T03:30:40.061Z,18.10
2022-08-23T03:35:42.354Z,17.98
2022-08-23T03:40:46.312Z,17.91
2022-08-23T03:45:48.406Z,17.86
2022-08-23T03:50:50.296Z,17.90
2022-08-23T03:55:58.308Z,17.94
2022-08-23T04:01:00.239Z,18.02
2022-08-23T04:06:01.978Z,18.05
2022-08-23T04:11:06.656Z,18.03
2022-08-23T04:16:08.650Z,18.10
2022-08-23T04:21:15.833Z,17.96
2022-08-23T04:26:19.027Z,17.86
2022-08-23T04:31:23.153Z,17.84
2022-08-23T04:36:25.720Z,17.90
2022-08-23T04:41:29.126Z,17.83
2022-08-23T04:46:31.630Z,17.88
2022-08-23T04:51:33.324Z,17.85
2022-08-23T04:56:37.228Z,17.92
2022-08-23T05:01:39.268Z,17.83
2022-08-23T05:06:41.291Z,17.90
2022-08-23T05:11:44.342Z,17.93
2022-08-23T05:16:46.317Z,18.07
2022-08-23T05:21:48.425Z,18.14
2022-08-23T05:26:51.905Z,18.25
2022-08-23T05:31:54.029Z,18.41
2022-08-23T05:36:56.427Z,18.50
2022-08-23T05:42:02.082Z,18.69
2022-08-23T05:47:06.869Z,18.98
2022-08-23T05:52:14.952Z,19.38
2022-08-23T05:57:18.310Z,19.30
2022-08-23T06:02:20.211Z,19.77
2022-08-23T06:07:22.274Z,19.63
2022-08-23T06:12:25.387Z,19.82
2022-08-23T06:17:27.584Z,19.53
2022-08-23T06:22:29.942Z,19.67
2022-08-23T06:27:33.460Z,19.86
2022-08-23T06:32:35.564Z,19.92
2022-08-23T06:37:37.356Z,20.08
2022-08-23T06:42:40.795Z,20.37
2022-08-23T06:47:42.515Z,20.58
2022-08-23T06:52:47.606Z,20.93
2022-08-23T06:57:50.737Z,20.68
2022-08-23T07:02:52.945Z,20.95
2022-08-23T07:07:54.843Z,21.09
2022-08-23T07:12:57.905Z,20.85
2022-08-23T07:18:00.115Z,21.49
2022-08-23T07:23:02.229Z,21.38
2022-08-23T07:28:09.834Z,21.84
2022-08-23T07:33:13.665Z,21.91
2022-08-23T07:38:16.304Z,22.18
2022-08-23T07:43:19.339Z,21.12
2022-08-23T07:48:37.304Z,21.54
2022-08-23T07:53:46.038Z,22.14
2022-08-23T07:58:49.613Z,22.42
2022-08-23T08:03:53.287Z,22.90
2022-08-23T08:08:55.568Z,22.71
2022-08-23T08:13:58.649Z,23.25
2022-08-23T08:19:02.157Z,23.65
2022-08-23T08:24:04.160Z,23.50
2022-08-23T08:29:08.736Z,23.20
2022-08-23T08:34:11.505Z,23.41
2022-08-23T08:39:15.116Z,23.57
2022-08-23T08:44:27.516Z,23.98
2022-08-23T08:49:37.159Z,23.75
2022-08-23T08:54:46.167Z,24.10
2022-08-23T08:59:58.340Z,24.13
2022-08-23T09:05:02.330Z,24.74
2022-08-23T09:10:29.756Z,25.68
2022-08-23T09:15:41.622Z,24.67
2022-08-23T09:20:47.047Z,25.26
2022-08-23T09:25:52.645Z,25.37
2022-08-23T09:30:58.702Z,25.79
2022-08-23T09:36:13.394Z,25.14
2022-08-23T09:41:22.646Z,24.47
2022-08-23T09:46:27.991Z,25.49
2022-08-23T09:51:32.548Z,25.60
2022-08-23T09:56:40.537Z,25.20
2022-08-23T10:01:47.927Z,24.86
2022-08-23T10:06:51.660Z,25.01
2022-08-23T10:11:55.613Z,24.82
2022-08-23T10:17:09.039Z,24.68
2022-08-23T10:22:18.671Z,24.88
2022-08-23T10:27:28.000Z,24.66
2022-08-23T10:32:43.855Z,24.52
2022-08-23T10:37:59.269Z,24.49
2022-08-23T10:43:14.013Z,24.82
2022-08-23T10:48:23.597Z,24.98
2022-08-23T10:53:34.873Z,25.47
2022-08-23T10:58:43.535Z,26.32
2022-08-23T11:04:00.685Z,28.67
2022-08-23T11:09:06.563Z,29.16
2022-08-23T11:14:11.067Z,28.74
2022-08-23T11:19:34.910Z,28.47
2022-08-23T11:24:53.103Z,28.75
2022-08-23T11:29:54.853Z,27.67
2022-08-23T11:35:08.765Z,26.79
2022-08-23T11:40:16.057Z,27.75
2022-08-23T11:45:39.184Z,28.47
2022-08-23T11:50:59.609Z,28.98
2022-08-23T11:56:46.014Z,28.74
2022-08-23T12:01:48.360Z,27.99
2022-08-23T12:06:53.514Z,26.47
2022-08-23T12:12:24.844Z,26.56
2022-08-23T12:18:04.146Z,27.28
2022-08-23T12:23:15.282Z,27.01
2022-08-23T12:28:34.406Z,27.64
2022-08-23T12:33:45.876Z,28.29
2022-08-23T12:38:58.461Z,28.38
2022-08-23T12:44:07.761Z,27.40
2022-08-23T12:49:12.589Z,27.05
2022-08-23T12:54:22.358Z,28.50
2022-08-23T12:59:33.504Z,28.91
2022-08-23T13:04:38.844Z,27.70
2022-08-23T13:09:43.368Z,26.77
2022-08-23T13:14:55.828Z,26.56
2022-08-23T13:20:16.350Z,27.85
2022-08-23T13:25:29.579Z,28.59
2022-08-23T13:30:36.324Z,27.92
2022-08-23T13:35:40.473Z,27.28
2022-08-23T13:40:51.876Z,27.56
2022-08-23T13:45:56.983Z,27.06
2022-08-23T13:51:16.901Z,27.19
2022-08-23T13:56:20.610Z,27.43
2022-08-23T14:01:22.988Z,27.32
2022-08-23T14:06:24.884Z,27.75
2022-08-23T14:11:28.131Z,27.86
2022-08-23T14:16:33.606Z,27.34
2022-08-23T14:21:35.997Z,28.04
2022-08-23T14:26:39.098Z,27.54
2022-08-23T14:31:55.639Z,27.62
2022-08-23T14:42:24.343Z,28.56
2022-08-23T14:47:26.763Z,27.90
2022-08-23T14:52:29.096Z,27.57
2022-08-23T14:57:32.318Z,26.70
2022-08-23T15:02:34.615Z,27.27
2022-08-23T15:07:36.386Z,27.81
2022-08-23T15:18:03.222Z,28.21
2022-08-23T15:23:06.541Z,27.65
2022-08-23T15:28:13.492Z,27.39
2022-08-23T15:33:16.018Z,26.60
2022-08-23T15:38:19.138Z,26.43
2022-08-23T15:43:34.012Z,26.60
2022-08-23T15:48:43.147Z,26.96
2022-08-23T15:53:45.638Z,27.90
2022-08-23T15:58:48.989Z,28.29
2022-08-23T16:03:51.077Z,28.45
2022-08-23T16:08:53.583Z,27.94
2022-08-23T16:13:57.093Z,26.99
2022-08-23T16:18:59.902Z,27.40
2022-08-23T16:24:02.183Z,27.72
2022-08-23T16:29:08.413Z,27.53
2022-08-23T16:34:13.438Z,27.49
2022-08-23T16:39:17.080Z,27.52
2022-08-23T16:44:20.512Z,27.35
2022-08-23T16:49:22.593Z,27.10
2022-08-23T16:54:24.325Z,27.15
2022-08-23T16:59:27.657Z,27.16
2022-08-23T17:04:30.886Z,26.68
2022-08-23T17:09:32.595Z,26.34
2022-08-23T17:14:36.184Z,26.19
2022-08-23T17:19:38.400Z,25.98
2022-08-23T17:24:40.391Z,25.80
2022-08-23T17:29:43.823Z,25.65
2022-08-23T17:34:45.862Z,25.36
2022-08-23T17:39:49.586Z,25.08
2022-08-23T17:44:53.363Z,24.79
2022-08-23T17:49:55.126Z,24.50
2022-08-23T17:54:57.615Z,24.13
2022-08-23T18:00:01.608Z,23.92
2022-08-23T18:05:04.107Z,23.77
2022-08-23T18:10:07.431Z,23.49
2022-08-23T18:15:12.450Z,23.20
2022-08-23T18:20:14.352Z,22.95
2022-08-23T18:25:16.639Z,22.62
2022-08-23T18:30:21.304Z,22.31
2022-08-23T18:35:23.875Z,22.27
2022-08-23T18:40:27.819Z,22.13
2022-08-23T18:45:31.023Z,22.01
2022-08-23T18:50:32.810Z,21.73
2022-08-23T18:55:34.962Z,21.47
2022-08-23T19:00:38.970Z,21.18
2022-08-23T19:05:42.607Z,20.92
2022-08-23T19:10:44.541Z,20.74
2022-08-23T19:15:47.710Z,20.46
2022-08-23T19:20:49.580Z,20.29
2022-08-23T19:25:51.335Z,20.10
2022-08-23T19:30:56.013Z,19.98
2022-08-23T19:35:58.672Z,19.85
2022-08-23T19:41:02.639Z,19.71
2022-08-23T19:46:07.051Z,19.56
2022-08-23T19:51:09.339Z,19.44
2022-08-23T19:56:11.461Z,19.31
2022-08-23T20:01:15.106Z,19.15
2022-08-23T20:06:18.916Z,19.09
2022-08-23T20:11:21.552Z,18.97
2022-08-23T20:16:25.277Z,18.82
2022-08-23T20:21:28.379Z,18.76
2022-08-23T20:26:33.197Z,18.62
2022-08-23T20:31:40.913Z,18.50
2022-08-23T20:36:43.413Z,18.39
2022-08-23T20:41:46.079Z,18.30
2022-08-23T20:46:54.686Z,18.27
2022-08-23T20:51:58.622Z,18.19
2022-08-23T20:57:01.124Z,18.13
2022-08-23T21:02:04.896Z,18.02
2022-08-23T21:07:07.029Z,17.93
2022-08-23T21:12:09.895Z,17.88
2022-08-23T21:17:13.325Z,17.79
2022-08-23T21:22:15.359Z,17.70
2022-08-23T21:27:17.407Z,17.61
2022-08-23T21:32:20.863Z,17.56
2022-08-23T21:37:23.128Z,17.49
2022-08-23T21:42:25.014Z,17.40
2022-08-23T21:47:28.460Z,17.34
2022-08-23T21:52:30.581Z,17.18
2022-08-23T21:57:32.928Z,17.13
2022-08-23T22:02:36.513Z,17.05
2022-08-23T22:07:39.237Z,16.95
2022-08-23T22:12:41.960Z,16.85
2022-08-23T22:17:45.544Z,16.80
2022-08-23T22:22:47.567Z,16.74
2022-08-23T22:27:49.339Z,16.70
2022-08-23T22:32:52.483Z,16.57
2022-08-23T22:38:12.823Z,16.49
2022-08-23T22:43:16.494Z,16.46
2022-08-23T22:48:20.066Z,16.38
2022-08-23T22:53:22.165Z,16.33
2022-08-23T22:58:24.352Z,16.24
2022-08-23T23:03:28.164Z,16.16
2022-08-23T23:08:30.137Z,16.03
2022-08-23T23:13:33.208Z,16.04
2022-08-23T23:18:36.861Z,15.94
2022-08-23T23:23:38.966Z,15.93
2022-08-23T23:28:41.009Z,15.85
2022-08-23T23:33:44.795Z,15.80
2022-08-23T23:38:47.376Z,15.77
2022-08-23T23:43:49.591Z,15.66
2022-08-23T23:48:53.445Z,15.63
2022-08-23T23:53:57.377Z,15.60
2022-08-23T23:59:01.159Z,15.51
